sensor_id;sensor_type;location;lat;lon;timestamp;P1;durP1;ratioP1;P2;durP2;ratioP2
16826;SDS011;8530;49.540;8.576;2023-01-19T00:02:21;19.43;;;15.47;;
16826;SDS011;8530;49.540;8.576;2023-01-19T00:04:48;18.10;;;14.90;;
16826;SDS011;8530;49.540;8.576;2023-01-19T00:07:17;19.37;;;16.27;;
16826;SDS011;8530;49.540;8.576;2023-01-19T00:09:43;25.53;;;16.70;;
16826;SDS011;8530;49.540;8.576;2023-01-19T00:12:10;20.30;;;15.30;;
16826;SDS011;8530;49.540;8.576;2023-01-19T00:14:37;21.63;;;16.03;;
16826;SDS011;8530;49.540;8.576;2023-01-19T00:17:03;19.40;;;14.20;;
16826;SDS011;8530;49.540;8.576;2023-01-19T00:19:30;22.63;;;12.83;;
16826;SDS011;8530;49.540;8.576;2023-01-19T00:21:57;17.50;;;13.50;;
16826;SDS011;8530;49.540;8.576;2023-01-19T00:24:25;18.43;;;14.87;;
16826;SDS011;8530;49.540;8.576;2023-01-19T00:26:52;18.43;;;14.20;;
16826;SDS011;8530;49.540;8.576;2023-01-19T00:29:19;17.63;;;14.40;;
16826;SDS011;8530;49.540;8.576;2023-01-19T00:31:48;17.00;;;14.70;;
16826;SDS011;8530;49.540;8.576;2023-01-19T00:34:14;19.60;;;15.83;;
16826;SDS011;8530;49.540;8.576;2023-01-19T00:36:42;18.37;;;16.00;;
16826;SDS011;8530;49.540;8.576;2023-01-19T00:39:09;16.70;;;13.67;;
16826;SDS011;8530;49.540;8.576;2023-01-19T00:41:37;19.90;;;14.73;;
16826;SDS011;8530;49.540;8.576;2023-01-19T00:44:21;24.10;;;15.80;;
16826;SDS011;8530;49.540;8.576;2023-01-19T00:46:48;19.73;;;16.47;;
16826;SDS011;8530;49.540;8.576;2023-01-19T00:49:15;21.10;;;15.73;;
16826;SDS011;8530;49.540;8.576;2023-01-19T00:51:42;29.93;;;17.33;;
16826;SDS011;8530;49.540;8.576;2023-01-19T00:54:10;22.60;;;16.23;;
16826;SDS011;8530;49.540;8.576;2023-01-19T00:56:38;18.77;;;14.87;;
16826;SDS011;8530;49.540;8.576;2023-01-19T00:59:05;20.30;;;15.10;;
16826;SDS011;8530;49.540;8.576;2023-01-19T01:01:31;18.63;;;15.83;;
16826;SDS011;8530;49.540;8.576;2023-01-19T01:03:58;21.50;;;16.20;;
16826;SDS011;8530;49.540;8.576;2023-01-19T01:06:25;22.20;;;16.33;;
16826;SDS011;8530;49.540;8.576;2023-01-19T01:08:52;21.27;;;16.23;;
16826;SDS011;8530;49.540;8.576;2023-01-19T01:11:18;24.13;;;17.30;;
16826;SDS011;8530;49.540;8.576;2023-01-19T01:13:46;19.73;;;15.90;;
16826;SDS011;8530;49.540;8.576;2023-01-19T01:16:15;25.13;;;18.00;;
16826;SDS011;8530;49.540;8.576;2023-01-19T01:18:42;24.37;;;17.17;;
16826;SDS011;8530;49.540;8.576;2023-01-19T01:21:09;24.67;;;17.90;;
16826;SDS011;8530;49.540;8.576;2023-01-19T01:23:40;22.80;;;16.70;;
16826;SDS011;8530;49.540;8.576;2023-01-19T01:26:07;25.07;;;17.40;;
16826;SDS011;8530;49.540;8.576;2023-01-19T01:28:34;25.33;;;18.77;;
16826;SDS011;8530;49.540;8.576;2023-01-19T01:31:02;23.60;;;16.57;;
16826;SDS011;8530;49.540;8.576;2023-01-19T01:33:29;21.70;;;17.67;;
16826;SDS011;8530;49.540;8.576;2023-01-19T01:35:56;23.80;;;15.73;;
16826;SDS011;8530;49.540;8.576;2023-01-19T01:38:23;28.70;;;20.77;;
16826;SDS011;8530;49.540;8.576;2023-01-19T01:40:50;23.33;;;17.83;;
16826;SDS011;8530;49.540;8.576;2023-01-19T01:43:17;23.77;;;17.90;;
16826;SDS011;8530;49.540;8.576;2023-01-19T01:45:46;24.50;;;18.20;;
16826;SDS011;8530;49.540;8.576;2023-01-19T01:48:15;25.27;;;17.67;;
16826;SDS011;8530;49.540;8.576;2023-01-19T01:50:47;24.17;;;18.73;;
16826;SDS011;8530;49.540;8.576;2023-01-19T01:53:30;23.80;;;18.17;;
16826;SDS011;8530;49.540;8.576;2023-01-19T01:55:59;26.63;;;20.13;;
16826;SDS011;8530;49.540;8.576;2023-01-19T01:58:27;29.70;;;18.87;;
16826;SDS011;8530;49.540;8.576;2023-01-19T02:00:55;21.80;;;19.40;;
16826;SDS011;8530;49.540;8.576;2023-01-19T02:03:41;25.93;;;20.17;;
16826;SDS011;8530;49.540;8.576;2023-01-19T02:06:09;26.13;;;18.63;;
16826;SDS011;8530;49.540;8.576;2023-01-19T02:08:38;31.07;;;20.73;;
16826;SDS011;8530;49.540;8.576;2023-01-19T02:11:26;23.93;;;18.97;;
16826;SDS011;8530;49.540;8.576;2023-01-19T02:14:11;29.03;;;21.60;;
16826;SDS011;8530;49.540;8.576;2023-01-19T02:16:38;31.80;;;20.97;;
16826;SDS011;8530;49.540;8.576;2023-01-19T02:19:07;33.30;;;20.40;;
16826;SDS011;8530;49.540;8.576;2023-01-19T02:21:40;27.83;;;18.80;;
16826;SDS011;8530;49.540;8.576;2023-01-19T02:24:13;32.17;;;20.47;;
16826;SDS011;8530;49.540;8.576;2023-01-19T02:26:40;25.37;;;20.20;;
16826;SDS011;8530;49.540;8.576;2023-01-19T02:29:10;28.50;;;21.97;;
16826;SDS011;8530;49.540;8.576;2023-01-19T02:31:40;27.20;;;20.90;;
16826;SDS011;8530;49.540;8.576;2023-01-19T02:34:10;28.97;;;20.23;;
16826;SDS011;8530;49.540;8.576;2023-01-19T02:36:43;28.10;;;20.33;;
16826;SDS011;8530;49.540;8.576;2023-01-19T02:39:14;27.50;;;20.10;;
16826;SDS011;8530;49.540;8.576;2023-01-19T02:41:45;36.27;;;21.33;;
16826;SDS011;8530;49.540;8.576;2023-01-19T02:44:16;27.13;;;21.70;;
16826;SDS011;8530;49.540;8.576;2023-01-19T02:46:45;30.27;;;23.17;;
16826;SDS011;8530;49.540;8.576;2023-01-19T02:49:12;35.77;;;22.50;;
16826;SDS011;8530;49.540;8.576;2023-01-19T02:51:40;31.53;;;21.47;;
16826;SDS011;8530;49.540;8.576;2023-01-19T02:54:12;26.90;;;20.07;;
16826;SDS011;8530;49.540;8.576;2023-01-19T02:56:54;28.60;;;22.00;;
16826;SDS011;8530;49.540;8.576;2023-01-19T02:59:46;26.57;;;20.40;;
16826;SDS011;8530;49.540;8.576;2023-01-19T03:02:25;28.40;;;21.93;;
16826;SDS011;8530;49.540;8.576;2023-01-19T03:05:02;27.60;;;20.77;;
16826;SDS011;8530;49.540;8.576;2023-01-19T03:07:46;28.50;;;21.53;;
16826;SDS011;8530;49.540;8.576;2023-01-19T03:10:25;25.63;;;20.43;;
16826;SDS011;8530;49.540;8.576;2023-01-19T03:12:58;23.83;;;20.17;;
16826;SDS011;8530;49.540;8.576;2023-01-19T03:15:32;27.83;;;20.87;;
16826;SDS011;8530;49.540;8.576;2023-01-19T03:18:06;28.40;;;22.33;;
16826;SDS011;8530;49.540;8.576;2023-01-19T03:20:35;33.83;;;22.63;;
16826;SDS011;8530;49.540;8.576;2023-01-19T03:23:05;29.37;;;21.90;;
16826;SDS011;8530;49.540;8.576;2023-01-19T03:25:37;31.93;;;21.93;;
16826;SDS011;8530;49.540;8.576;2023-01-19T03:28:06;29.67;;;21.70;;
16826;SDS011;8530;49.540;8.576;2023-01-19T03:30:34;28.90;;;20.17;;
16826;SDS011;8530;49.540;8.576;2023-01-19T03:33:05;27.23;;;21.50;;
16826;SDS011;8530;49.540;8.576;2023-01-19T03:35:34;28.83;;;21.30;;
16826;SDS011;8530;49.540;8.576;2023-01-19T03:38:06;26.33;;;21.23;;
16826;SDS011;8530;49.540;8.576;2023-01-19T03:40:41;26.83;;;19.70;;
16826;SDS011;8530;49.540;8.576;2023-01-19T03:43:11;28.67;;;23.00;;
16826;SDS011;8530;49.540;8.576;2023-01-19T03:45:40;23.97;;;19.90;;
16826;SDS011;8530;49.540;8.576;2023-01-19T03:48:09;26.27;;;20.40;;
16826;SDS011;8530;49.540;8.576;2023-01-19T03:50:36;26.07;;;21.37;;
16826;SDS011;8530;49.540;8.576;2023-01-19T03:53:07;29.03;;;22.80;;
16826;SDS011;8530;49.540;8.576;2023-01-19T03:55:36;24.10;;;20.50;;
16826;SDS011;8530;49.540;8.576;2023-01-19T03:58:05;25.50;;;20.53;;
16826;SDS011;8530;49.540;8.576;2023-01-19T04:00:32;30.90;;;19.90;;
16826;SDS011;8530;49.540;8.576;2023-01-19T04:03:00;24.13;;;19.60;;
16826;SDS011;8530;49.540;8.576;2023-01-19T04:05:27;26.70;;;19.60;;
16826;SDS011;8530;49.540;8.576;2023-01-19T04:07:54;27.57;;;19.60;;
16826;SDS011;8530;49.540;8.576;2023-01-19T04:10:21;24.30;;;19.17;;
16826;SDS011;8530;49.540;8.576;2023-01-19T04:12:50;23.07;;;17.83;;
16826;SDS011;8530;49.540;8.576;2023-01-19T04:15:23;26.30;;;18.90;;
16826;SDS011;8530;49.540;8.576;2023-01-19T04:17:50;25.53;;;19.73;;
16826;SDS011;8530;49.540;8.576;2023-01-19T04:20:17;25.07;;;18.93;;
16826;SDS011;8530;49.540;8.576;2023-01-19T04:22:45;20.33;;;17.87;;
16826;SDS011;8530;49.540;8.576;2023-01-19T04:25:13;24.93;;;18.27;;
16826;SDS011;8530;49.540;8.576;2023-01-19T04:27:40;23.43;;;18.30;;
16826;SDS011;8530;49.540;8.576;2023-01-19T04:30:07;27.77;;;20.77;;
16826;SDS011;8530;49.540;8.576;2023-01-19T04:32:36;29.60;;;18.90;;
16826;SDS011;8530;49.540;8.576;2023-01-19T04:35:04;23.53;;;19.67;;
16826;SDS011;8530;49.540;8.576;2023-01-19T04:37:31;23.60;;;19.20;;
16826;SDS011;8530;49.540;8.576;2023-01-19T04:39:57;24.27;;;19.10;;
16826;SDS011;8530;49.540;8.576;2023-01-19T04:42:24;24.90;;;18.70;;
16826;SDS011;8530;49.540;8.576;2023-01-19T04:44:51;29.33;;;21.73;;
16826;SDS011;8530;49.540;8.576;2023-01-19T04:47:21;25.70;;;21.50;;
16826;SDS011;8530;49.540;8.576;2023-01-19T04:49:49;26.00;;;18.60;;
16826;SDS011;8530;49.540;8.576;2023-01-19T04:52:15;31.40;;;19.83;;
16826;SDS011;8530;49.540;8.576;2023-01-19T04:54:42;27.77;;;20.83;;
16826;SDS011;8530;49.540;8.576;2023-01-19T04:57:09;30.13;;;21.27;;
16826;SDS011;8530;49.540;8.576;2023-01-19T04:59:35;22.23;;;18.60;;
16826;SDS011;8530;49.540;8.576;2023-01-19T05:02:02;22.20;;;18.67;;
16826;SDS011;8530;49.540;8.576;2023-01-19T05:04:29;28.37;;;19.37;;
16826;SDS011;8530;49.540;8.576;2023-01-19T05:06:57;23.73;;;19.70;;
16826;SDS011;8530;49.540;8.576;2023-01-19T05:09:26;25.00;;;20.60;;
16826;SDS011;8530;49.540;8.576;2023-01-19T05:11:53;26.03;;;19.13;;
16826;SDS011;8530;49.540;8.576;2023-01-19T05:14:19;27.23;;;19.40;;
16826;SDS011;8530;49.540;8.576;2023-01-19T05:16:49;32.80;;;20.93;;
16826;SDS011;8530;49.540;8.576;2023-01-19T05:19:16;29.73;;;21.37;;
16826;SDS011;8530;49.540;8.576;2023-01-19T05:21:42;31.73;;;21.03;;
16826;SDS011;8530;49.540;8.576;2023-01-19T05:24:12;23.33;;;19.30;;
16826;SDS011;8530;49.540;8.576;2023-01-19T05:26:39;29.80;;;21.10;;
16826;SDS011;8530;49.540;8.576;2023-01-19T05:29:06;26.77;;;20.13;;
16826;SDS011;8530;49.540;8.576;2023-01-19T05:31:34;37.50;;;21.47;;
16826;SDS011;8530;49.540;8.576;2023-01-19T05:34:02;34.00;;;21.17;;
16826;SDS011;8530;49.540;8.576;2023-01-19T05:36:30;27.30;;;22.13;;
16826;SDS011;8530;49.540;8.576;2023-01-19T05:38:57;32.73;;;23.10;;
16826;SDS011;8530;49.540;8.576;2023-01-19T05:41:25;30.47;;;23.60;;
16826;SDS011;8530;49.540;8.576;2023-01-19T05:43:52;32.83;;;23.27;;
16826;SDS011;8530;49.540;8.576;2023-01-19T05:46:18;25.63;;;21.13;;
16826;SDS011;8530;49.540;8.576;2023-01-19T05:48:46;30.30;;;22.93;;
16826;SDS011;8530;49.540;8.576;2023-01-19T05:51:12;27.53;;;21.87;;
16826;SDS011;8530;49.540;8.576;2023-01-19T05:53:39;27.60;;;21.30;;
16826;SDS011;8530;49.540;8.576;2023-01-19T05:56:06;27.00;;;21.83;;
16826;SDS011;8530;49.540;8.576;2023-01-19T05:58:36;32.97;;;24.30;;
16826;SDS011;8530;49.540;8.576;2023-01-19T06:01:06;29.63;;;22.53;;
16826;SDS011;8530;49.540;8.576;2023-01-19T06:03:35;26.03;;;20.47;;
16826;SDS011;8530;49.540;8.576;2023-01-19T06:06:03;31.00;;;21.90;;
16826;SDS011;8530;49.540;8.576;2023-01-19T06:08:31;24.80;;;20.63;;
16826;SDS011;8530;49.540;8.576;2023-01-19T06:10:58;29.13;;;23.70;;
16826;SDS011;8530;49.540;8.576;2023-01-19T06:13:24;37.77;;;23.63;;
16826;SDS011;8530;49.540;8.576;2023-01-19T06:15:56;30.37;;;22.23;;
16826;SDS011;8530;49.540;8.576;2023-01-19T06:18:23;32.50;;;23.50;;
16826;SDS011;8530;49.540;8.576;2023-01-19T06:20:50;32.30;;;24.20;;
16826;SDS011;8530;49.540;8.576;2023-01-19T06:23:22;30.00;;;22.40;;
16826;SDS011;8530;49.540;8.576;2023-01-19T06:25:49;29.07;;;23.30;;
16826;SDS011;8530;49.540;8.576;2023-01-19T06:28:16;28.70;;;23.93;;
16826;SDS011;8530;49.540;8.576;2023-01-19T06:30:44;31.80;;;22.63;;
16826;SDS011;8530;49.540;8.576;2023-01-19T06:33:14;39.53;;;25.37;;
16826;SDS011;8530;49.540;8.576;2023-01-19T06:35:41;33.90;;;25.90;;
16826;SDS011;8530;49.540;8.576;2023-01-19T06:38:08;27.93;;;22.63;;
16826;SDS011;8530;49.540;8.576;2023-01-19T06:40:37;32.83;;;22.97;;
16826;SDS011;8530;49.540;8.576;2023-01-19T06:43:05;28.20;;;23.57;;
16826;SDS011;8530;49.540;8.576;2023-01-19T06:45:32;30.97;;;23.50;;
16826;SDS011;8530;49.540;8.576;2023-01-19T06:47:59;30.67;;;24.53;;
16826;SDS011;8530;49.540;8.576;2023-01-19T06:50:29;28.20;;;22.80;;
16826;SDS011;8530;49.540;8.576;2023-01-19T06:52:56;32.10;;;22.37;;
16826;SDS011;8530;49.540;8.576;2023-01-19T06:55:24;30.43;;;23.73;;
16826;SDS011;8530;49.540;8.576;2023-01-19T06:57:54;31.27;;;23.27;;
16826;SDS011;8530;49.540;8.576;2023-01-19T07:00:22;29.40;;;23.37;;
16826;SDS011;8530;49.540;8.576;2023-01-19T07:02:49;31.17;;;22.27;;
16826;SDS011;8530;49.540;8.576;2023-01-19T07:05:16;28.50;;;22.47;;
16826;SDS011;8530;49.540;8.576;2023-01-19T07:07:44;35.40;;;22.10;;
16826;SDS011;8530;49.540;8.576;2023-01-19T07:10:16;30.50;;;22.33;;
16826;SDS011;8530;49.540;8.576;2023-01-19T07:12:43;28.97;;;22.70;;
16826;SDS011;8530;49.540;8.576;2023-01-19T07:15:11;28.73;;;22.60;;
16826;SDS011;8530;49.540;8.576;2023-01-19T07:17:39;30.47;;;20.53;;
16826;SDS011;8530;49.540;8.576;2023-01-19T07:20:06;27.10;;;20.70;;
16826;SDS011;8530;49.540;8.576;2023-01-19T07:22:37;28.00;;;20.73;;
16826;SDS011;8530;49.540;8.576;2023-01-19T07:25:05;25.60;;;20.70;;
16826;SDS011;8530;49.540;8.576;2023-01-19T07:27:33;27.13;;;20.60;;
16826;SDS011;8530;49.540;8.576;2023-01-19T07:30:01;28.70;;;22.47;;
16826;SDS011;8530;49.540;8.576;2023-01-19T07:32:32;28.30;;;23.40;;
16826;SDS011;8530;49.540;8.576;2023-01-19T07:35:07;28.20;;;20.73;;
16826;SDS011;8530;49.540;8.576;2023-01-19T07:40:19;33.90;;;20.17;;
16826;SDS011;8530;49.540;8.576;2023-01-19T07:42:47;28.87;;;20.70;;
16826;SDS011;8530;49.540;8.576;2023-01-19T07:45:16;24.43;;;19.83;;
16826;SDS011;8530;49.540;8.576;2023-01-19T07:47:43;29.97;;;18.67;;
16826;SDS011;8530;49.540;8.576;2023-01-19T07:50:21;24.00;;;19.27;;
16826;SDS011;8530;49.540;8.576;2023-01-19T07:52:50;27.20;;;20.20;;
16826;SDS011;8530;49.540;8.576;2023-01-19T07:55:18;24.73;;;18.60;;
16826;SDS011;8530;49.540;8.576;2023-01-19T07:57:47;24.07;;;20.30;;
16826;SDS011;8530;49.540;8.576;2023-01-19T08:00:15;26.10;;;20.00;;
16826;SDS011;8530;49.540;8.576;2023-01-19T08:02:44;24.27;;;18.20;;
16826;SDS011;8530;49.540;8.576;2023-01-19T08:05:16;26.50;;;19.20;;
16826;SDS011;8530;49.540;8.576;2023-01-19T08:07:43;25.77;;;20.87;;
16826;SDS011;8530;49.540;8.576;2023-01-19T08:10:11;29.77;;;20.90;;
16826;SDS011;8530;49.540;8.576;2023-01-19T08:12:40;28.53;;;20.93;;
16826;SDS011;8530;49.540;8.576;2023-01-19T08:15:11;27.10;;;18.37;;
16826;SDS011;8530;49.540;8.576;2023-01-19T08:17:38;23.23;;;18.63;;
16826;SDS011;8530;49.540;8.576;2023-01-19T08:20:06;26.77;;;18.97;;
16826;SDS011;8530;49.540;8.576;2023-01-19T08:22:35;24.63;;;18.40;;
16826;SDS011;8530;49.540;8.576;2023-01-19T08:25:03;27.17;;;17.87;;
16826;SDS011;8530;49.540;8.576;2023-01-19T08:27:31;27.13;;;19.30;;
16826;SDS011;8530;49.540;8.576;2023-01-19T08:29:59;22.67;;;18.30;;
16826;SDS011;8530;49.540;8.576;2023-01-19T08:32:26;23.47;;;18.03;;
16826;SDS011;8530;49.540;8.576;2023-01-19T08:34:52;22.80;;;18.73;;
16826;SDS011;8530;49.540;8.576;2023-01-19T08:37:20;27.30;;;18.97;;
16826;SDS011;8530;49.540;8.576;2023-01-19T08:39:47;29.07;;;19.20;;
16826;SDS011;8530;49.540;8.576;2023-01-19T08:42:13;29.77;;;18.50;;
16826;SDS011;8530;49.540;8.576;2023-01-19T08:44:40;21.57;;;18.20;;
16826;SDS011;8530;49.540;8.576;2023-01-19T08:47:08;34.60;;;18.90;;
16826;SDS011;8530;49.540;8.576;2023-01-19T08:49:35;25.13;;;18.70;;
16826;SDS011;8530;49.540;8.576;2023-01-19T08:52:02;26.47;;;19.17;;
16826;SDS011;8530;49.540;8.576;2023-01-19T08:54:29;23.60;;;18.77;;
16826;SDS011;8530;49.540;8.576;2023-01-19T08:57:00;27.60;;;20.07;;
16826;SDS011;8530;49.540;8.576;2023-01-19T08:59:27;24.73;;;18.83;;
16826;SDS011;8530;49.540;8.576;2023-01-19T09:01:54;17.83;;;15.90;;
16826;SDS011;8530;49.540;8.576;2023-01-19T09:04:22;23.03;;;18.43;;
16826;SDS011;8530;49.540;8.576;2023-01-19T09:06:49;24.50;;;16.20;;
16826;SDS011;8530;49.540;8.576;2023-01-19T09:09:16;22.70;;;18.43;;
16826;SDS011;8530;49.540;8.576;2023-01-19T09:11:42;23.67;;;16.30;;
16826;SDS011;8530;49.540;8.576;2023-01-19T09:14:09;21.77;;;16.90;;
16826;SDS011;8530;49.540;8.576;2023-01-19T09:16:37;21.00;;;16.60;;
16826;SDS011;8530;49.540;8.576;2023-01-19T09:19:04;22.80;;;16.70;;
16826;SDS011;8530;49.540;8.576;2023-01-19T09:21:34;23.17;;;16.23;;
16826;SDS011;8530;49.540;8.576;2023-01-19T09:24:01;24.40;;;16.17;;
16826;SDS011;8530;49.540;8.576;2023-01-19T09:26:28;22.93;;;15.40;;
16826;SDS011;8530;49.540;8.576;2023-01-19T09:28:55;27.00;;;18.00;;
16826;SDS011;8530;49.540;8.576;2023-01-19T09:31:23;20.30;;;17.37;;
16826;SDS011;8530;49.540;8.576;2023-01-19T09:33:50;20.83;;;16.57;;
16826;SDS011;8530;49.540;8.576;2023-01-19T09:36:16;20.33;;;16.63;;
16826;SDS011;8530;49.540;8.576;2023-01-19T09:38:44;19.07;;;15.17;;
16826;SDS011;8530;49.540;8.576;2023-01-19T09:41:13;24.73;;;17.47;;
16826;SDS011;8530;49.540;8.576;2023-01-19T09:43:46;21.10;;;15.70;;
16826;SDS011;8530;49.540;8.576;2023-01-19T09:46:17;23.03;;;18.57;;
16826;SDS011;8530;49.540;8.576;2023-01-19T09:48:48;26.73;;;17.37;;
16826;SDS011;8530;49.540;8.576;2023-01-19T09:51:18;24.03;;;17.17;;
16826;SDS011;8530;49.540;8.576;2023-01-19T09:56:16;21.00;;;15.47;;
16826;SDS011;8530;49.540;8.576;2023-01-19T09:58:44;17.80;;;15.70;;
16826;SDS011;8530;49.540;8.576;2023-01-19T10:01:16;20.10;;;15.40;;
16826;SDS011;8530;49.540;8.576;2023-01-19T10:04:05;22.20;;;15.93;;
16826;SDS011;8530;49.540;8.576;2023-01-19T10:06:44;23.07;;;16.90;;
16826;SDS011;8530;49.540;8.576;2023-01-19T10:09:13;24.03;;;16.33;;
16826;SDS011;8530;49.540;8.576;2023-01-19T10:11:50;19.07;;;15.03;;
16826;SDS011;8530;49.540;8.576;2023-01-19T10:14:22;25.40;;;16.23;;
16826;SDS011;8530;49.540;8.576;2023-01-19T10:16:56;18.60;;;13.40;;
16826;SDS011;8530;49.540;8.576;2023-01-19T10:19:31;18.50;;;14.90;;
16826;SDS011;8530;49.540;8.576;2023-01-19T10:22:03;22.60;;;16.50;;
16826;SDS011;8530;49.540;8.576;2023-01-19T10:24:41;18.10;;;14.53;;
16826;SDS011;8530;49.540;8.576;2023-01-19T10:27:12;26.50;;;15.93;;
16826;SDS011;8530;49.540;8.576;2023-01-19T10:29:42;17.30;;;14.47;;
16826;SDS011;8530;49.540;8.576;2023-01-19T10:32:11;21.93;;;15.27;;
16826;SDS011;8530;49.540;8.576;2023-01-19T10:34:41;18.50;;;13.47;;
16826;SDS011;8530;49.540;8.576;2023-01-19T10:37:12;20.30;;;14.20;;
16826;SDS011;8530;49.540;8.576;2023-01-19T10:39:43;16.93;;;14.10;;
16826;SDS011;8530;49.540;8.576;2023-01-19T10:42:14;17.27;;;13.97;;
16826;SDS011;8530;49.540;8.576;2023-01-19T10:44:41;14.87;;;13.27;;
16826;SDS011;8530;49.540;8.576;2023-01-19T10:47:12;17.93;;;14.00;;
16826;SDS011;8530;49.540;8.576;2023-01-19T10:49:42;18.27;;;13.40;;
16826;SDS011;8530;49.540;8.576;2023-01-19T10:52:16;16.77;;;13.53;;
16826;SDS011;8530;49.540;8.576;2023-01-19T10:54:48;14.47;;;12.33;;
16826;SDS011;8530;49.540;8.576;2023-01-19T10:57:21;18.33;;;11.77;;
16826;SDS011;8530;49.540;8.576;2023-01-19T10:59:53;18.90;;;13.60;;
16826;SDS011;8530;49.540;8.576;2023-01-19T11:02:20;16.00;;;12.27;;
16826;SDS011;8530;49.540;8.576;2023-01-19T11:04:52;17.27;;;12.17;;
16826;SDS011;8530;49.540;8.576;2023-01-19T11:07:21;20.00;;;13.60;;
16826;SDS011;8530;49.540;8.576;2023-01-19T11:10:11;16.33;;;13.07;;
16826;SDS011;8530;49.540;8.576;2023-01-19T11:12:51;17.73;;;13.47;;
16826;SDS011;8530;49.540;8.576;2023-01-19T11:15:22;17.37;;;13.13;;
16826;SDS011;8530;49.540;8.576;2023-01-19T11:17:50;21.23;;;12.97;;
16826;SDS011;8530;49.540;8.576;2023-01-19T11:20:18;20.97;;;13.87;;
16826;SDS011;8530;49.540;8.576;2023-01-19T11:22:46;16.10;;;12.47;;
16826;SDS011;8530;49.540;8.576;2023-01-19T11:25:19;19.70;;;14.90;;
16826;SDS011;8530;49.540;8.576;2023-01-19T11:27:52;19.87;;;13.13;;
16826;SDS011;8530;49.540;8.576;2023-01-19T11:30:19;22.23;;;12.50;;
16826;SDS011;8530;49.540;8.576;2023-01-19T11:32:49;16.43;;;13.07;;
16826;SDS011;8530;49.540;8.576;2023-01-19T11:35:36;20.30;;;13.63;;
16826;SDS011;8530;49.540;8.576;2023-01-19T11:38:04;19.03;;;14.70;;
16826;SDS011;8530;49.540;8.576;2023-01-19T11:40:32;20.50;;;14.90;;
16826;SDS011;8530;49.540;8.576;2023-01-19T11:43:02;14.10;;;11.80;;
16826;SDS011;8530;49.540;8.576;2023-01-19T11:45:29;18.50;;;13.23;;
16826;SDS011;8530;49.540;8.576;2023-01-19T11:48:00;22.63;;;13.83;;
16826;SDS011;8530;49.540;8.576;2023-01-19T11:50:30;17.53;;;13.90;;
16826;SDS011;8530;49.540;8.576;2023-01-19T11:53:02;21.73;;;13.23;;
16826;SDS011;8530;49.540;8.576;2023-01-19T11:55:35;20.00;;;13.50;;
16826;SDS011;8530;49.540;8.576;2023-01-19T11:58:08;14.17;;;11.60;;
16826;SDS011;8530;49.540;8.576;2023-01-19T12:00:41;17.10;;;14.20;;
16826;SDS011;8530;49.540;8.576;2023-01-19T12:03:12;20.63;;;14.50;;
16826;SDS011;8530;49.540;8.576;2023-01-19T12:05:43;19.30;;;14.20;;
16826;SDS011;8530;49.540;8.576;2023-01-19T12:08:14;17.73;;;14.43;;
16826;SDS011;8530;49.540;8.576;2023-01-19T12:10:44;16.33;;;12.87;;
16826;SDS011;8530;49.540;8.576;2023-01-19T12:13:17;17.50;;;12.50;;
16826;SDS011;8530;49.540;8.576;2023-01-19T12:15:46;15.77;;;12.40;;
16826;SDS011;8530;49.540;8.576;2023-01-19T12:18:17;17.70;;;13.33;;
16826;SDS011;8530;49.540;8.576;2023-01-19T12:20:47;14.27;;;12.60;;
16826;SDS011;8530;49.540;8.576;2023-01-19T12:23:19;16.93;;;12.00;;
16826;SDS011;8530;49.540;8.576;2023-01-19T12:25:58;15.03;;;12.33;;
16826;SDS011;8530;49.540;8.576;2023-01-19T12:28:34;15.63;;;12.43;;
16826;SDS011;8530;49.540;8.576;2023-01-19T12:31:04;17.20;;;12.00;;
16826;SDS011;8530;49.540;8.576;2023-01-19T12:33:33;15.03;;;12.83;;
16826;SDS011;8530;49.540;8.576;2023-01-19T12:36:02;17.93;;;12.63;;
16826;SDS011;8530;49.540;8.576;2023-01-19T12:38:42;17.33;;;13.03;;
16826;SDS011;8530;49.540;8.576;2023-01-19T12:41:16;18.80;;;14.40;;
16826;SDS011;8530;49.540;8.576;2023-01-19T12:43:47;17.70;;;12.87;;
16826;SDS011;8530;49.540;8.576;2023-01-19T12:46:18;17.63;;;13.40;;
16826;SDS011;8530;49.540;8.576;2023-01-19T12:48:49;14.70;;;12.30;;
16826;SDS011;8530;49.540;8.576;2023-01-19T12:51:21;16.23;;;11.97;;
16826;SDS011;8530;49.540;8.576;2023-01-19T12:53:51;16.30;;;12.00;;
16826;SDS011;8530;49.540;8.576;2023-01-19T12:56:25;19.40;;;12.47;;
16826;SDS011;8530;49.540;8.576;2023-01-19T12:58:55;15.03;;;11.97;;
16826;SDS011;8530;49.540;8.576;2023-01-19T13:01:23;19.33;;;14.27;;
16826;SDS011;8530;49.540;8.576;2023-01-19T13:03:58;15.00;;;12.27;;
16826;SDS011;8530;49.540;8.576;2023-01-19T13:09:30;14.73;;;11.33;;
16826;SDS011;8530;49.540;8.576;2023-01-19T13:12:18;13.50;;;11.50;;
16826;SDS011;8530;49.540;8.576;2023-01-19T13:14:47;16.17;;;13.00;;
16826;SDS011;8530;49.540;8.576;2023-01-19T13:17:23;18.40;;;11.67;;
16826;SDS011;8530;49.540;8.576;2023-01-19T13:19:56;17.40;;;12.23;;
16826;SDS011;8530;49.540;8.576;2023-01-19T13:25:40;15.47;;;12.43;;
16826;SDS011;8530;49.540;8.576;2023-01-19T13:28:12;15.90;;;11.63;;
16826;SDS011;8530;49.540;8.576;2023-01-19T13:30:48;16.00;;;12.23;;
16826;SDS011;8530;49.540;8.576;2023-01-19T13:33:20;17.13;;;12.77;;
16826;SDS011;8530;49.540;8.576;2023-01-19T13:35:50;14.33;;;11.80;;
16826;SDS011;8530;49.540;8.576;2023-01-19T13:38:20;14.33;;;11.03;;
16826;SDS011;8530;49.540;8.576;2023-01-19T13:40:48;15.60;;;10.97;;
16826;SDS011;8530;49.540;8.576;2023-01-19T13:43:16;14.83;;;10.90;;
16826;SDS011;8530;49.540;8.576;2023-01-19T13:45:48;16.03;;;11.10;;
16826;SDS011;8530;49.540;8.576;2023-01-19T13:48:17;14.17;;;10.70;;
16826;SDS011;8530;49.540;8.576;2023-01-19T13:50:56;12.03;;;9.40;;
16826;SDS011;8530;49.540;8.576;2023-01-19T13:53:25;11.27;;;10.03;;
16826;SDS011;8530;49.540;8.576;2023-01-19T13:56:06;12.57;;;10.67;;
16826;SDS011;8530;49.540;8.576;2023-01-19T13:58:34;14.47;;;10.50;;
16826;SDS011;8530;49.540;8.576;2023-01-19T14:01:02;12.97;;;10.30;;
16826;SDS011;8530;49.540;8.576;2023-01-19T14:03:29;12.00;;;10.10;;
16826;SDS011;8530;49.540;8.576;2023-01-19T14:05:56;17.13;;;9.67;;
16826;SDS011;8530;49.540;8.576;2023-01-19T14:08:22;13.83;;;9.80;;
16826;SDS011;8530;49.540;8.576;2023-01-19T14:10:58;11.07;;;9.80;;
16826;SDS011;8530;49.540;8.576;2023-01-19T14:13:27;11.17;;;9.83;;
16826;SDS011;8530;49.540;8.576;2023-01-19T14:15:55;15.40;;;11.00;;
16826;SDS011;8530;49.540;8.576;2023-01-19T14:18:26;13.50;;;10.30;;
16826;SDS011;8530;49.540;8.576;2023-01-19T14:20:56;22.80;;;14.60;;
16826;SDS011;8530;49.540;8.576;2023-01-19T14:23:35;20.23;;;12.97;;
16826;SDS011;8530;49.540;8.576;2023-01-19T14:29:13;13.60;;;10.20;;
16826;SDS011;8530;49.540;8.576;2023-01-19T14:31:43;12.50;;;9.27;;
16826;SDS011;8530;49.540;8.576;2023-01-19T14:34:31;13.70;;;9.20;;
16826;SDS011;8530;49.540;8.576;2023-01-19T14:37:01;18.13;;;10.03;;
16826;SDS011;8530;49.540;8.576;2023-01-19T14:39:31;12.23;;;10.20;;
16826;SDS011;8530;49.540;8.576;2023-01-19T14:42:00;12.50;;;10.67;;
16826;SDS011;8530;49.540;8.576;2023-01-19T14:44:32;11.03;;;9.23;;
16826;SDS011;8530;49.540;8.576;2023-01-19T14:47:02;12.07;;;9.53;;
16826;SDS011;8530;49.540;8.576;2023-01-19T14:49:33;12.67;;;10.20;;
16826;SDS011;8530;49.540;8.576;2023-01-19T14:52:01;9.57;;;8.67;;
16826;SDS011;8530;49.540;8.576;2023-01-19T14:54:32;11.87;;;10.23;;
16826;SDS011;8530;49.540;8.576;2023-01-19T14:57:02;16.53;;;11.13;;
16826;SDS011;8530;49.540;8.576;2023-01-19T14:59:30;11.03;;;9.87;;
16826;SDS011;8530;49.540;8.576;2023-01-19T15:01:57;12.13;;;10.10;;
16826;SDS011;8530;49.540;8.576;2023-01-19T15:04:24;13.20;;;10.50;;
16826;SDS011;8530;49.540;8.576;2023-01-19T15:06:53;14.10;;;10.67;;